sensor_id;sensor_type;location;lat;lon;timestamp;P1;durP1;ratioP1;P2;durP2;ratioP2
23280;SDS011;11809;56.390;-3.266;2023-02-28T00:01:29;2.13;;;1.40;;
23280;SDS011;11809;56.390;-3.266;2023-02-28T00:03:57;2.97;;;1.30;;
23280;SDS011;11809;56.390;-3.266;2023-02-28T00:06:24;2.05;;;1.30;;
23280;SDS011;11809;56.390;-3.266;2023-02-28T00:08:52;1.75;;;1.33;;
23280;SDS011;11809;56.390;-3.266;2023-02-28T00:11:19;1.77;;;1.27;;
23280;SDS011;11809;56.390;-3.266;2023-02-28T00:13:46;1.85;;;1.27;;
23280;SDS011;11809;56.390;-3.266;2023-02-28T00:16:15;1.48;;;1.30;;
23280;SDS011;11809;56.390;-3.266;2023-02-28T00:18:44;1.95;;;1.45;;
23280;SDS011;11809;56.390;-3.266;2023-02-28T00:21:13;2.35;;;1.40;;
23280;SDS011;11809;56.390;-3.266;2023-02-28T00:23:40;1.95;;;1.33;;
23280;SDS011;11809;56.390;-3.266;2023-02-28T00:26:07;3.63;;;1.17;;
23280;SDS011;11809;56.390;-3.266;2023-02-28T00:28:34;2.80;;;1.40;;
23280;SDS011;11809;56.390;-3.266;2023-02-28T00:31:01;1.60;;;1.30;;
23280;SDS011;11809;56.390;-3.266;2023-02-28T00:33:29;1.85;;;1.27;;
23280;SDS011;11809;56.390;-3.266;2023-02-28T00:36:03;1.60;;;1.40;;
23280;SDS011;11809;56.390;-3.266;2023-02-28T00:38:31;2.08;;;1.33;;
23280;SDS011;11809;56.390;-3.266;2023-02-28T00:40:59;1.40;;;1.23;;
23280;SDS011;11809;56.390;-3.266;2023-02-28T00:43:32;1.73;;;1.20;;
23280;SDS011;11809;56.390;-3.266;2023-02-28T00:46:00;1.55;;;1.20;;
23280;SDS011;11809;56.390;-3.266;2023-02-28T00:48:28;1.65;;;1.30;;
23280;SDS011;11809;56.390;-3.266;2023-02-28T00:50:55;2.30;;;1.27;;
23280;SDS011;11809;56.390;-3.266;2023-02-28T00:53:22;2.20;;;1.30;;
23280;SDS011;11809;56.390;-3.266;2023-02-28T00:55:49;1.73;;;1.10;;
23280;SDS011;11809;56.390;-3.266;2023-02-28T00:58:17;2.55;;;1.30;;
23280;SDS011;11809;56.390;-3.266;2023-02-28T01:00:44;1.77;;;1.30;;
23280;SDS011;11809;56.390;-3.266;2023-02-28T01:03:16;1.77;;;1.30;;
23280;SDS011;11809;56.390;-3.266;2023-02-28T01:05:44;1.48;;;1.23;;
23280;SDS011;11809;56.390;-3.266;2023-02-28T01:08:12;1.63;;;1.27;;
23280;SDS011;11809;56.390;-3.266;2023-02-28T01:10:40;1.98;;;1.40;;
23280;SDS011;11809;56.390;-3.266;2023-02-28T01:13:07;1.77;;;1.20;;
23280;SDS011;11809;56.390;-3.266;2023-02-28T01:15:35;1.73;;;1.25;;
23280;SDS011;11809;56.390;-3.266;2023-02-28T01:18:02;1.58;;;1.00;;
23280;SDS011;11809;56.390;-3.266;2023-02-28T01:20:29;1.38;;;1.02;;
23280;SDS011;11809;56.390;-3.266;2023-02-28T01:22:56;1.50;;;1.30;;
23280;SDS011;11809;56.390;-3.266;2023-02-28T01:25:23;1.77;;;1.25;;
23280;SDS011;11809;56.390;-3.266;2023-02-28T01:27:50;1.30;;;1.20;;
23280;SDS011;11809;56.390;-3.266;2023-02-28T01:30:17;1.20;;;1.10;;
23280;SDS011;11809;56.390;-3.266;2023-02-28T01:32:44;1.30;;;1.02;;
23280;SDS011;11809;56.390;-3.266;2023-02-28T01:35:11;0.98;;;0.90;;
23280;SDS011;11809;56.390;-3.266;2023-02-28T01:37:38;1.40;;;1.13;;
23280;SDS011;11809;56.390;-3.266;2023-02-28T01:40:05;3.00;;;1.10;;
23280;SDS011;11809;56.390;-3.266;2023-02-28T01:42:33;1.60;;;0.98;;
23280;SDS011;11809;56.390;-3.266;2023-02-28T01:45:01;1.90;;;1.20;;
23280;SDS011;11809;56.390;-3.266;2023-02-28T01:47:30;1.42;;;1.20;;
23280;SDS011;11809;56.390;-3.266;2023-02-28T01:50:02;1.15;;;0.80;;
23280;SDS011;11809;56.390;-3.266;2023-02-28T01:52:32;1.23;;;0.88;;
23280;SDS011;11809;56.390;-3.266;2023-02-28T01:55:00;1.08;;;0.98;;
23280;SDS011;11809;56.390;-3.266;2023-02-28T01:57:32;1.05;;;0.90;;
23280;SDS011;11809;56.390;-3.266;2023-02-28T02:00:05;1.50;;;1.13;;
23280;SDS011;11809;56.390;-3.266;2023-02-28T02:02:41;1.10;;;0.80;;
23280;SDS011;11809;56.390;-3.266;2023-02-28T02:05:15;1.20;;;0.88;;
23280;SDS011;11809;56.390;-3.266;2023-02-28T02:07:48;1.33;;;0.73;;
23280;SDS011;11809;56.390;-3.266;2023-02-28T02:10:22;0.90;;;0.80;;
23280;SDS011;11809;56.390;-3.266;2023-02-28T02:15:24;1.42;;;1.05;;
23280;SDS011;11809;56.390;-3.266;2023-02-28T02:17:57;1.25;;;0.80;;
23280;SDS011;11809;56.390;-3.266;2023-02-28T02:20:38;1.67;;;0.80;;
23280;SDS011;11809;56.390;-3.266;2023-02-28T02:31:54;0.60;;;0.60;;
23280;SDS011;11809;56.390;-3.266;2023-02-28T02:42:15;2.58;;;0.73;;
23280;SDS011;11809;56.390;-3.266;2023-02-28T02:44:50;0.55;;;0.55;;
23280;SDS011;11809;56.390;-3.266;2023-02-28T02:47:24;1.65;;;0.68;;
23280;SDS011;11809;56.390;-3.266;2023-02-28T02:49:56;1.55;;;0.70;;
23280;SDS011;11809;56.390;-3.266;2023-02-28T02:52:33;2.50;;;0.73;;
23280;SDS011;11809;56.390;-3.266;2023-02-28T02:55:05;0.93;;;0.70;;
23280;SDS011;11809;56.390;-3.266;2023-02-28T02:57:43;0.70;;;0.50;;
23280;SDS011;11809;56.390;-3.266;2023-02-28T03:00:18;0.70;;;0.60;;
23280;SDS011;11809;56.390;-3.266;2023-02-28T03:02:50;0.52;;;0.52;;
23280;SDS011;11809;56.390;-3.266;2023-02-28T03:05:25;0.85;;;0.55;;
23280;SDS011;11809;56.390;-3.266;2023-02-28T03:07:55;0.52;;;0.50;;
23280;SDS011;11809;56.390;-3.266;2023-02-28T03:10:29;0.70;;;0.55;;
23280;SDS011;11809;56.390;-3.266;2023-02-28T03:21:26;0.90;;;0.50;;
23280;SDS011;11809;56.390;-3.266;2023-02-28T03:27:11;0.77;;;0.57;;
23280;SDS011;11809;56.390;-3.266;2023-02-28T03:29:50;0.50;;;0.45;;
23280;SDS011;11809;56.390;-3.266;2023-02-28T03:32:31;1.15;;;0.60;;
23280;SDS011;11809;56.390;-3.266;2023-02-28T03:35:23;0.82;;;0.70;;
23280;SDS011;11809;56.390;-3.266;2023-02-28T03:38:03;0.57;;;0.57;;
23280;SDS011;11809;56.390;-3.266;2023-02-28T03:40:35;0.70;;;0.68;;
23280;SDS011;11809;56.390;-3.266;2023-02-28T03:43:08;0.50;;;0.50;;
23280;SDS011;11809;56.390;-3.266;2023-02-28T03:45:39;3.03;;;0.63;;
23280;SDS011;11809;56.390;-3.266;2023-02-28T03:50:37;0.93;;;0.70;;
23280;SDS011;11809;56.390;-3.266;2023-02-28T03:53:12;0.85;;;0.60;;
23280;SDS011;11809;56.390;-3.266;2023-02-28T03:55:48;0.80;;;0.65;;
23280;SDS011;11809;56.390;-3.266;2023-02-28T04:01:00;0.80;;;0.63;;
23280;SDS011;11809;56.390;-3.266;2023-02-28T04:03:37;1.20;;;0.52;;
23280;SDS011;11809;56.390;-3.266;2023-02-28T04:06:13;0.90;;;0.60;;
23280;SDS011;11809;56.390;-3.266;2023-02-28T04:08:43;1.75;;;0.50;;
23280;SDS011;11809;56.390;-3.266;2023-02-28T04:13:59;0.60;;;0.60;;
23280;SDS011;11809;56.390;-3.266;2023-02-28T04:16:26;0.75;;;0.60;;
23280;SDS011;11809;56.390;-3.266;2023-02-28T04:19:02;0.52;;;0.50;;
23280;SDS011;11809;56.390;-3.266;2023-02-28T04:21:42;0.80;;;0.60;;
23280;SDS011;11809;56.390;-3.266;2023-02-28T04:24:15;0.60;;;0.60;;
23280;SDS011;11809;56.390;-3.266;2023-02-28T04:26:51;0.60;;;0.52;;
23280;SDS011;11809;56.390;-3.266;2023-02-28T04:29:53;0.70;;;0.50;;
23280;SDS011;11809;56.390;-3.266;2023-02-28T04:32:13;1.30;;;0.80;;
23280;SDS011;11809;56.390;-3.266;2023-02-28T04:34:40;0.95;;;0.70;;
23280;SDS011;11809;56.390;-3.266;2023-02-28T04:37:07;0.50;;;0.50;;
23280;SDS011;11809;56.390;-3.266;2023-02-28T04:39:39;1.17;;;0.50;;
23280;SDS011;11809;56.390;-3.266;2023-02-28T04:42:08;0.70;;;0.63;;
23280;SDS011;11809;56.390;-3.266;2023-02-28T04:44:35;1.15;;;0.70;;
23280;SDS011;11809;56.390;-3.266;2023-02-28T04:47:02;0.93;;;0.68;;
23280;SDS011;11809;56.390;-3.266;2023-02-28T04:49:29;0.70;;;0.60;;
23280;SDS011;11809;56.390;-3.266;2023-02-28T04:51:56;0.65;;;0.60;;
23280;SDS011;11809;56.390;-3.266;2023-02-28T04:54:22;0.50;;;0.50;;
23280;SDS011;11809;56.390;-3.266;2023-02-28T04:56:49;0.65;;;0.55;;
23280;SDS011;11809;56.390;-3.266;2023-02-28T04:59:16;0.40;;;0.40;;
23280;SDS011;11809;56.390;-3.266;2023-02-28T05:01:47;0.50;;;0.50;;
23280;SDS011;11809;56.390;-3.266;2023-02-28T05:04:15;0.60;;;0.50;;
23280;SDS011;11809;56.390;-3.266;2023-02-28T05:06:42;0.70;;;0.55;;
23280;SDS011;11809;56.390;-3.266;2023-02-28T05:09:09;2.22;;;0.90;;
23280;SDS011;11809;56.390;-3.266;2023-02-28T05:11:39;1.33;;;0.50;;
23280;SDS011;11809;56.390;-3.266;2023-02-28T05:14:09;2.22;;;1.02;;
23280;SDS011;11809;56.390;-3.266;2023-02-28T05:19:04;0.60;;;0.57;;
23280;SDS011;11809;56.390;-3.266;2023-02-28T05:21:32;0.70;;;0.55;;
23280;SDS011;11809;56.390;-3.266;2023-02-28T05:24:05;0.82;;;0.50;;
23280;SDS011;11809;56.390;-3.266;2023-02-28T05:26:39;0.73;;;0.63;;
23280;SDS011;11809;56.390;-3.266;2023-02-28T05:29:09;1.02;;;0.50;;
23280;SDS011;11809;56.390;-3.266;2023-02-28T05:31:36;1.17;;;0.63;;
23280;SDS011;11809;56.390;-3.266;2023-02-28T05:34:03;0.68;;;0.40;;
23280;SDS011;11809;56.390;-3.266;2023-02-28T05:36:30;0.85;;;0.50;;
23280;SDS011;11809;56.390;-3.266;2023-02-28T05:38:58;0.52;;;0.50;;
23280;SDS011;11809;56.390;-3.266;2023-02-28T05:41:24;1.15;;;0.50;;
23280;SDS011;11809;56.390;-3.266;2023-02-28T05:43:53;5.38;;;0.77;;
23280;SDS011;11809;56.390;-3.266;2023-02-28T05:46:20;0.98;;;0.52;;
23280;SDS011;11809;56.390;-3.266;2023-02-28T05:48:47;3.92;;;0.65;;
23280;SDS011;11809;56.390;-3.266;2023-02-28T05:51:15;2.70;;;0.80;;
23280;SDS011;11809;56.390;-3.266;2023-02-28T05:53:42;2.90;;;0.50;;
23280;SDS011;11809;56.390;-3.266;2023-02-28T05:56:09;2.88;;;0.90;;
23280;SDS011;11809;56.390;-3.266;2023-02-28T05:58:36;9.30;;;0.90;;
23280;SDS011;11809;56.390;-3.266;2023-02-28T06:04:15;2.35;;;0.60;;
23280;SDS011;11809;56.390;-3.266;2023-02-28T06:06:56;7.60;;;0.88;;
23280;SDS011;11809;56.390;-3.266;2023-02-28T06:09:23;5.18;;;0.98;;
23280;SDS011;11809;56.390;-3.266;2023-02-28T06:11:51;8.55;;;0.82;;
23280;SDS011;11809;56.390;-3.266;2023-02-28T06:14:18;17.15;;;1.40;;
23280;SDS011;11809;56.390;-3.266;2023-02-28T06:16:46;18.17;;;1.02;;
23280;SDS011;11809;56.390;-3.266;2023-02-28T06:19:13;6.30;;;0.80;;
23280;SDS011;11809;56.390;-3.266;2023-02-28T06:21:41;5.72;;;0.90;;
23280;SDS011;11809;56.390;-3.266;2023-02-28T06:24:09;21.13;;;1.27;;
23280;SDS011;11809;56.390;-3.266;2023-02-28T06:26:36;13.30;;;1.95;;
23280;SDS011;11809;56.390;-3.266;2023-02-28T06:29:03;7.05;;;0.80;;
23280;SDS011;11809;56.390;-3.266;2023-02-28T06:31:30;8.95;;;0.75;;
23280;SDS011;11809;56.390;-3.266;2023-02-28T06:33:58;4.63;;;0.80;;
23280;SDS011;11809;56.390;-3.266;2023-02-28T06:36:25;3.72;;;0.60;;
23280;SDS011;11809;56.390;-3.266;2023-02-28T06:38:52;11.85;;;1.20;;
23280;SDS011;11809;56.390;-3.266;2023-02-28T06:41:24;4.43;;;0.90;;
23280;SDS011;11809;56.390;-3.266;2023-02-28T06:43:53;3.85;;;0.60;;
23280;SDS011;11809;56.390;-3.266;2023-02-28T06:46:20;7.00;;;0.60;;
23280;SDS011;11809;56.390;-3.266;2023-02-28T06:48:48;14.75;;;1.38;;
23280;SDS011;11809;56.390;-3.266;2023-02-28T06:51:17;1.65;;;0.55;;
23280;SDS011;11809;56.390;-3.266;2023-02-28T06:53:46;3.15;;;0.68;;
23280;SDS011;11809;56.390;-3.266;2023-02-28T06:56:14;6.07;;;0.68;;
23280;SDS011;11809;56.390;-3.266;2023-02-28T06:58:45;4.40;;;0.70;;
23280;SDS011;11809;56.390;-3.266;2023-02-28T07:01:14;4.78;;;0.50;;
23280;SDS011;11809;56.390;-3.266;2023-02-28T07:03:42;4.18;;;0.57;;
23280;SDS011;11809;56.390;-3.266;2023-02-28T07:06:09;2.35;;;0.75;;
23280;SDS011;11809;56.390;-3.266;2023-02-28T07:08:36;15.75;;;1.52;;
23280;SDS011;11809;56.390;-3.266;2023-02-28T07:11:03;19.73;;;1.35;;
23280;SDS011;11809;56.390;-3.266;2023-02-28T07:13:30;20.65;;;2.00;;
23280;SDS011;11809;56.390;-3.266;2023-02-28T07:15:59;19.88;;;1.42;;
23280;SDS011;11809;56.390;-3.266;2023-02-28T07:18:28;7.85;;;0.90;;
23280;SDS011;11809;56.390;-3.266;2023-02-28T07:20:55;7.32;;;0.70;;
23280;SDS011;11809;56.390;-3.266;2023-02-28T07:23:22;5.05;;;0.90;;
23280;SDS011;11809;56.390;-3.266;2023-02-28T07:25:50;5.25;;;0.70;;
23280;SDS011;11809;56.390;-3.266;2023-02-28T07:28:18;6.93;;;0.57;;
23280;SDS011;11809;56.390;-3.266;2023-02-28T07:30:45;5.70;;;0.82;;
23280;SDS011;11809;56.390;-3.266;2023-02-28T07:33:12;5.50;;;1.08;;
23280;SDS011;11809;56.390;-3.266;2023-02-28T07:35:39;2.40;;;0.60;;
23280;SDS011;11809;56.390;-3.266;2023-02-28T07:38:06;7.32;;;0.70;;
23280;SDS011;11809;56.390;-3.266;2023-02-28T07:40:36;24.23;;;2.20;;
23280;SDS011;11809;56.390;-3.266;2023-02-28T07:43:03;10.15;;;0.90;;
23280;SDS011;11809;56.390;-3.266;2023-02-28T07:45:30;31.75;;;1.65;;
23280;SDS011;11809;56.390;-3.266;2023-02-28T07:48:01;20.65;;;1.85;;
23280;SDS011;11809;56.390;-3.266;2023-02-28T07:50:28;33.53;;;1.85;;
23280;SDS011;11809;56.390;-3.266;2023-02-28T07:52:58;14.80;;;1.40;;
23280;SDS011;11809;56.390;-3.266;2023-02-28T07:55:25;26.63;;;1.48;;
23280;SDS011;11809;56.390;-3.266;2023-02-28T07:57:52;12.13;;;1.20;;
23280;SDS011;11809;56.390;-3.266;2023-02-28T08:00:20;15.57;;;1.17;;
23280;SDS011;11809;56.390;-3.266;2023-02-28T08:02:48;17.60;;;1.00;;
23280;SDS011;11809;56.390;-3.266;2023-02-28T08:05:15;8.57;;;1.17;;
23280;SDS011;11809;56.390;-3.266;2023-02-28T08:07:43;6.55;;;0.70;;
23280;SDS011;11809;56.390;-3.266;2023-02-28T08:10:10;3.70;;;0.93;;
23280;SDS011;11809;56.390;-3.266;2023-02-28T08:12:37;4.90;;;0.98;;
23280;SDS011;11809;56.390;-3.266;2023-02-28T08:15:05;3.03;;;0.55;;
23280;SDS011;11809;56.390;-3.266;2023-02-28T08:17:32;9.10;;;0.65;;
23280;SDS011;11809;56.390;-3.266;2023-02-28T08:20:00;4.03;;;0.50;;
23280;SDS011;11809;56.390;-3.266;2023-02-28T08:22:27;3.10;;;0.70;;
23280;SDS011;11809;56.390;-3.266;2023-02-28T08:24:55;4.30;;;0.50;;
23280;SDS011;11809;56.390;-3.266;2023-02-28T08:27:22;2.42;;;0.60;;
23280;SDS011;11809;56.390;-3.266;2023-02-28T08:29:49;1.63;;;0.40;;
23280;SDS011;11809;56.390;-3.266;2023-02-28T08:32:16;1.88;;;0.60;;
23280;SDS011;11809;56.390;-3.266;2023-02-28T08:34:55;2.20;;;0.40;;
23280;SDS011;11809;56.390;-3.266;2023-02-28T08:37:22;3.65;;;0.52;;
23280;SDS011;11809;56.390;-3.266;2023-02-28T08:39:49;1.80;;;0.50;;
23280;SDS011;11809;56.390;-3.266;2023-02-28T08:42:16;0.65;;;0.50;;
23280;SDS011;11809;56.390;-3.266;2023-02-28T08:44:43;1.77;;;0.40;;
23280;SDS011;11809;56.390;-3.266;2023-02-28T08:47:10;1.00;;;0.45;;
23280;SDS011;11809;56.390;-3.266;2023-02-28T08:49:37;2.58;;;0.30;;
23280;SDS011;11809;56.390;-3.266;2023-02-28T08:52:04;0.70;;;0.30;;
23280;SDS011;11809;56.390;-3.266;2023-02-28T08:54:31;1.50;;;0.40;;
23280;SDS011;11809;56.390;-3.266;2023-02-28T08:56:59;1.65;;;0.40;;
23280;SDS011;11809;56.390;-3.266;2023-02-28T08:59:26;0.95;;;0.50;;
23280;SDS011;11809;56.390;-3.266;2023-02-28T09:01:53;3.33;;;0.50;;
23280;SDS011;11809;56.390;-3.266;2023-02-28T09:04:20;3.53;;;0.50;;
23280;SDS011;11809;56.390;-3.266;2023-02-28T09:06:50;3.72;;;0.60;;
23280;SDS011;11809;56.390;-3.266;2023-02-28T09:09:17;22.98;;;1.25;;
23280;SDS011;11809;56.390;-3.266;2023-02-28T09:11:44;7.93;;;1.10;;
23280;SDS011;11809;56.390;-3.266;2023-02-28T09:14:12;8.00;;;0.77;;
23280;SDS011;11809;56.390;-3.266;2023-02-28T09:16:39;5.93;;;0.75;;
23280;SDS011;11809;56.390;-3.266;2023-02-28T09:19:06;7.13;;;0.90;;
23280;SDS011;11809;56.390;-3.266;2023-02-28T09:21:33;23.98;;;2.35;;
23280;SDS011;11809;56.390;-3.266;2023-02-28T09:24:00;28.15;;;2.08;;
23280;SDS011;11809;56.390;-3.266;2023-02-28T09:26:27;35.22;;;2.22;;
23280;SDS011;11809;56.390;-3.266;2023-02-28T09:29:07;9.80;;;0.93;;
23280;SDS011;11809;56.390;-3.266;2023-02-28T09:31:34;7.82;;;0.68;;
23280;SDS011;11809;56.390;-3.266;2023-02-28T09:34:03;20.98;;;1.40;;
23280;SDS011;11809;56.390;-3.266;2023-02-28T09:36:30;15.00;;;1.10;;
23280;SDS011;11809;56.390;-3.266;2023-02-28T09:39:10;31.40;;;2.13;;
23280;SDS011;11809;56.390;-3.266;2023-02-28T09:41:38;32.63;;;3.10;;
23280;SDS011;11809;56.390;-3.266;2023-02-28T09:44:17;22.38;;;4.45;;
23280;SDS011;11809;56.390;-3.266;2023-02-28T09:47:05;23.42;;;5.40;;
23280;SDS011;11809;56.390;-3.266;2023-02-28T09:49:43;19.10;;;4.40;;
23280;SDS011;11809;56.390;-3.266;2023-02-28T09:52:20;19.52;;;5.78;;
23280;SDS011;11809;56.390;-3.266;2023-02-28T09:54:53;25.08;;;5.25;;
23280;SDS011;11809;56.390;-3.266;2023-02-28T09:57:31;20.80;;;4.30;;
23280;SDS011;11809;56.390;-3.266;2023-02-28T10:05:23;12.88;;;2.38;;
23280;SDS011;11809;56.390;-3.266;2023-02-28T10:07:58;9.38;;;2.53;;
23280;SDS011;11809;56.390;-3.266;2023-02-28T10:10:50;17.33;;;3.25;;
23280;SDS011;11809;56.390;-3.266;2023-02-28T10:13:26;11.25;;;2.92;;
23280;SDS011;11809;56.390;-3.266;2023-02-28T10:16:19;30.52;;;4.18;;
23280;SDS011;11809;56.390;-3.266;2023-02-28T10:18:56;37.15;;;5.13;;
23280;SDS011;11809;56.390;-3.266;2023-02-28T10:21:34;15.95;;;3.95;;
23280;SDS011;11809;56.390;-3.266;2023-02-28T10:24:16;8.70;;;3.15;;
23280;SDS011;11809;56.390;-3.266;2023-02-28T10:26:56;7.30;;;3.28;;
23280;SDS011;11809;56.390;-3.266;2023-02-28T10:29:27;18.25;;;3.38;;
23280;SDS011;11809;56.390;-3.266;2023-02-28T10:31:58;16.15;;;3.42;;
23280;SDS011;11809;56.390;-3.266;2023-02-28T10:34:29;7.38;;;2.63;;
23280;SDS011;11809;56.390;-3.266;2023-02-28T10:36:56;13.65;;;3.10;;
23280;SDS011;11809;56.390;-3.266;2023-02-28T10:42:05;10.48;;;2.30;;
23280;SDS011;11809;56.390;-3.266;2023-02-28T10:45:14;6.53;;;2.05;;
23280;SDS011;11809;56.390;-3.266;2023-02-28T10:47:51;6.55;;;1.80;;
23280;SDS011;11809;56.390;-3.266;2023-02-28T10:53:22;12.40;;;1.85;;
23280;SDS011;11809;56.390;-3.266;2023-02-28T10:58:53;6.63;;;1.60;;
23280;SDS011;11809;56.390;-3.266;2023-02-28T11:03:57;5.35;;;1.38;;
23280;SDS011;11809;56.390;-3.266;2023-02-28T11:06:34;7.55;;;1.38;;
23280;SDS011;11809;56.390;-3.266;2023-02-28T11:09:06;3.42;;;1.20;;
23280;SDS011;11809;56.390;-3.266;2023-02-28T11:11:56;5.07;;;1.30;;
23280;SDS011;11809;56.390;-3.266;2023-02-28T11:14:30;3.35;;;1.00;;
23280;SDS011;11809;56.390;-3.266;2023-02-28T11:17:11;5.65;;;1.10;;
23280;SDS011;11809;56.390;-3.266;2023-02-28T11:19:46;11.45;;;1.17;;
23280;SDS011;11809;56.390;-3.266;2023-02-28T11:22:20;17.88;;;0.93;;
23280;SDS011;11809;56.390;-3.266;2023-02-28T11:24:53;5.07;;;0.40;;
23280;SDS011;11809;56.390;-3.266;2023-02-28T11:27:25;6.05;;;0.47;;
23280;SDS011;11809;56.390;-3.266;2023-02-28T11:29:52;13.27;;;0.77;;
23280;SDS011;11809;56.390;-3.266;2023-02-28T11:32:23;2.90;;;0.35;;
23280;SDS011;11809;56.390;-3.266;2023-02-28T11:37:38;41.08;;;2.38;;
23280;SDS011;11809;56.390;-3.266;2023-02-28T11:40:09;35.00;;;2.13;;
23280;SDS011;11809;56.390;-3.266;2023-02-28T11:42:52;25.15;;;1.20;;
23280;SDS011;11809;56.390;-3.266;2023-02-28T11:48:49;8.07;;;1.10;;
23280;SDS011;11809;56.390;-3.266;2023-02-28T11:51:45;21.05;;;1.02;;
23280;SDS011;11809;56.390;-3.266;2023-02-28T11:54:23;25.52;;;1.30;;
23280;SDS011;11809;56.390;-3.266;2023-02-28T12:01:00;5.03;;;1.15;;
23280;SDS011;11809;56.390;-3.266;2023-02-28T12:03:33;7.13;;;1.02;;
23280;SDS011;11809;56.390;-3.266;2023-02-28T12:12:20;1.85;;;0.50;;
23280;SDS011;11809;56.390;-3.266;2023-02-28T12:14:59;3.83;;;0.40;;
23280;SDS011;11809;56.390;-3.266;2023-02-28T12:28:54;2.67;;;0.50;;
23280;SDS011;11809;56.390;-3.266;2023-02-28T12:31:38;2.08;;;0.52;;
23280;SDS011;11809;56.390;-3.266;2023-02-28T12:34:11;1.17;;;0.40;;
23280;SDS011;11809;56.390;-3.266;2023-02-28T12:36:44;1.95;;;0.40;;
23280;SDS011;11809;56.390;-3.266;2023-02-28T12:39:18;2.78;;;0.40;;
23280;SDS011;11809;56.390;-3.266;2023-02-28T12:42:03;1.13;;;0.25;;
23280;SDS011;11809;56.390;-3.266;2023-02-28T12:44:39;2.05;;;0.40;;
23280;SDS011;11809;56.390;-3.266;2023-02-28T12:47:14;2.83;;;0.40;;
23280;SDS011;11809;56.390;-3.266;2023-02-28T12:52:17;1.15;;;0.30;;
23280;SDS011;11809;56.390;-3.266;2023-02-28T12:54:54;2.88;;;0.40;;
23280;SDS011;11809;56.390;-3.266;2023-02-28T13:00:15;0.25;;;0.22;;
23280;SDS011;11809;56.390;-3.266;2023-02-28T13:10:41;3.47;;;0.20;;
23280;SDS011;11809;56.390;-3.266;2023-02-28T13:13:14;1.67;;;0.25;;
23280;SDS011;11809;56.390;-3.266;2023-02-28T13:21:21;0.40;;;0.30;;
23280;SDS011;11809;56.390;-3.266;2023-02-28T13:39:51;0.30;;;0.30;;
23280;SDS011;11809;56.390;-3.266;2023-02-28T13:42:24;0.38;;;0.30;;
23280;SDS011;11809;56.390;-3.266;2023-02-28T13:47:35;1.00;;;0.40;;
23280;SDS011;11809;56.390;-3.266;2023-02-28T13:55:43;4.72;;;0.60;;
23280;SDS011;11809;56.390;-3.266;2023-02-28T14:04:22;2.88;;;0.45;;
23280;SDS011;11809;56.390;-3.266;2023-02-28T14:06:54;8.77;;;0.60;;
23280;SDS011;11809;56.390;-3.266;2023-02-28T14:21:01;2.15;;;0.40;;
23280;SDS011;11809;56.390;-3.266;2023-02-28T14:31:19;2.70;;;0.50;;
23280;SDS011;11809;56.390;-3.266;2023-02-28T14:36:44;1.48;;;0.60;;
23280;SDS011;11809;56.390;-3.266;2023-02-28T14:39:16;2.42;;;0.60;;
23280;SDS011;11809;56.390;-3.266;2023-02-28T14:41:46;2.30;;;0.60;;
23280;SDS011;11809;56.390;-3.266;2023-02-28T14:44:15;18.33;;;1.80;;
23280;SDS011;11809;56.390;-3.266;2023-02-28T14:46:46;9.60;;;2.28;;
23280;SDS011;11809;56.390;-3.266;2023-02-28T14:49:35;51.10;;;4.55;;
23280;SDS011;11809;56.390;-3.266;2023-02-28T14:52:14;28.00;;;2.78;;
23280;SDS011;11809;56.390;-3.266;2023-02-28T14:54:45;45.20;;;3.35;;
23280;SDS011;11809;56.390;-3.266;2023-02-28T14:57:22;22.70;;;2.55;;
23280;SDS011;11809;56.390;-3.266;2023-02-28T15:00:14;26.35;;;2.97;;
23280;SDS011;11809;56.390;-3.266;2023-02-28T15:02:47;22.65;;;2.75;;
23280;SDS011;11809;56.390;-3.266;2023-02-28T15:07:44;21.90;;;2.40;;
23280;SDS011;11809;56.390;-3.266;2023-02-28T15:18:21;18.05;;;1.63;;
23280;SDS011;11809;56.390;-3.266;2023-02-28T15:21:00;86.90;;;5.50;;
23280;SDS011;11809;56.390;-3.266;2023-02-28T15:23:30;37.13;;;3.30;;
23280;SDS011;11809;56.390;-3.266;2023-02-28T15:25:59;34.85;;;1.80;;
23280;SDS011;11809;56.390;-3.266;2023-02-28T15:28:27;63.90;;;3.65;;
23280;SDS011;11809;56.390;-3.266;2023-02-28T15:33:26;64.90;;;3.55;;
23280;SDS011;11809;56.390;-3.266;2023-02-28T15:38:56;48.25;;;2.80;;
23280;SDS011;11809;56.390;-3.266;2023-02-28T15:41:40;63.40;;;4.22;;
23280;SDS011;11809;56.390;-3.266;2023-02-28T15:44:24;60.53;;;3.80;;
23280;SDS011;11809;56.390;-3.266;2023-02-28T15:47:02;35.60;;;2.40;;
23280;SDS011;11809;56.390;-3.266;2023-02-28T15:49:39;34.60;;;2.58;;
23280;SDS011;11809;56.390;-3.266;2023-02-28T15:52:12;24.10;;;1.92;;
23280;SDS011;11809;56.390;-3.266;2023-02-28T15:54:45;40.35;;;2.08;;
23280;SDS011;11809;56.390;-3.266;2023-02-28T15:57:15;19.00;;;1.42;;
23280;SDS011;11809;56.390;-3.266;2023-02-28T15:59:51;19.65;;;1.58;;
23280;SDS011;11809;56.390;-3.266;2023-02-28T16:05:00;20.38;;;2.47;;
23280;SDS011;11809;56.390;-3.266;2023-02-28T16:07:37;18.67;;;1.80;;
23280;SDS011;11809;56.390;-3.266;2023-02-28T16:10:06;14.52;;;1.35;;
23280;SDS011;11809;56.390;-3.266;2023-02-28T16:12:35;9.18;;;1.15;;
23280;SDS011;11809;56.390;-3.266;2023-02-28T16:15:25;14.48;;;1.33;;
23280;SDS011;11809;56.390;-3.266;2023-02-28T16:17:55;12.93;;;1.20;;
23280;SDS011;11809;56.390;-3.266;2023-02-28T16:20:28;9.43;;;0.98;;
23280;SDS011;11809;56.390;-3.266;2023-02-28T16:22:56;9.73;;;1.00;;
23280;SDS011;11809;56.390;-3.266;2023-02-28T16:25:33;6.60;;;1.05;;
23280;SDS011;11809;56.390;-3.266;2023-02-28T16:28:07;6.45;;;0.95;;
23280;SDS011;11809;56.390;-3.266;2023-02-28T16:30:44;9.80;;;1.35;;
23280;SDS011;11809;56.390;-3.266;2023-02-28T16:33:12;12.43;;;1.00;;
23280;SDS011;11809;56.390;-3.266;2023-02-28T16:35:39;9.65;;;1.10;;
23280;SDS011;11809;56.390;-3.266;2023-02-28T16:38:06;8.70;;;1.00;;
23280;SDS011;11809;56.390;-3.266;2023-02-28T16:40:34;15.25;;;1.30;;
23280;SDS011;11809;56.390;-3.266;2023-02-28T16:43:05;10.85;;;0.90;;
23280;SDS011;11809;56.390;-3.266;2023-02-28T16:45:36;14.13;;;1.13;;
23280;SDS011;11809;56.390;-3.266;2023-02-28T16:48:03;9.80;;;1.15;;
23280;SDS011;11809;56.390;-3.266;2023-02-28T16:50:30;22.33;;;1.77;;
23280;SDS011;11809;56.390;-3.266;2023-02-28T16:53:01;14.05;;;0.98;;
23280;SDS011;11809;56.390;-3.266;2023-02-28T16:55:28;8.23;;;0.85;;
23280;SDS011;11809;56.390;-3.266;2023-02-28T16:57:59;7.70;;;1.10;;
23280;SDS011;11809;56.390;-3.266;2023-02-28T17:00:27;19.85;;;1.70;;
23280;SDS011;11809;56.390;-3.266;2023-02-28T17:02:56;6.90;;;0.80;;
23280;SDS011;11809;56.390;-3.266;2023-02-28T17:05:23;14.43;;;1.27;;
23280;SDS011;11809;56.390;-3.266;2023-02-28T17:07:51;12.35;;;1.15;;
23280;SDS011;11809;56.390;-3.266;2023-02-28T17:10:20;29.40;;;2.25;;
23280;SDS011;11809;56.390;-3.266;2023-02-28T17:12:49;20.58;;;3.17;;
23280;SDS011;11809;56.390;-3.266;2023-02-28T17:15:18;28.48;;;3.42;;
23280;SDS011;11809;56.390;-3.266;2023-02-28T17:17:47;18.80;;;4.00;;
23280;SDS011;11809;56.390;-3.266;2023-02-28T17:20:20;24.58;;;3.80;;
23280;SDS011;11809;56.390;-3.266;2023-02-28T17:22:53;22.90;;;3.70;;
23280;SDS011;11809;56.390;-3.266;2023-02-28T17:25:21;41.78;;;4.72;;
23280;SDS011;11809;56.390;-3.266;2023-02-28T17:27:49;38.03;;;3.70;;
23280;SDS011;11809;56.390;-3.266;2023-02-28T17:30:18;42.55;;;4.20;;
23280;SDS011;11809;56.390;-3.266;2023-02-28T17:32:47;142.65;;;10.45;;
23280;SDS011;11809;56.390;-3.266;2023-02-28T17:35:17;88.97;;;6.60;;
23280;SDS011;11809;56.390;-3.266;2023-02-28T17:37:44;29.90;;;4.72;;
23280;SDS011;11809;56.390;-3.266;2023-02-28T17:40:13;50.15;;;4.63;;
23280;SDS011;11809;56.390;-3.266;2023-02-28T17:42:42;42.40;;;5.68;;
23280;SDS011;11809;56.390;-3.266;2023-02-28T17:45:10;24.38;;;3.92;;
23280;SDS011;11809;56.390;-3.266;2023-02-28T17:47:38;28.85;;;3.88;;
23280;SDS011;11809;56.390;-3.266;2023-02-28T17:50:11;31.05;;;5.28;;
23280;SDS011;11809;56.390;-3.266;2023-02-28T17:52:41;29.30;;;3.95;;